sensor_id;sensor_type;location;lat;lon;timestamp;temperature;humidity
68764;DHT22;55754;52.038;5.566;2022-07-06T00:01:17;15.90;61.80
68764;DHT22;55754;52.038;5.566;2022-07-06T00:03:42;16.00;61.90
68764;DHT22;55754;52.038;5.566;2022-07-06T00:06:08;16.00;61.90
68764;DHT22;55754;52.038;5.566;2022-07-06T00:08:34;15.90;61.90
68764;DHT22;55754;52.038;5.566;2022-07-06T00:11:00;15.90;61.90
68764;DHT22;55754;52.038;5.566;2022-07-06T00:13:26;15.90;62.00
68764;DHT22;55754;52.038;5.566;2022-07-06T00:15:52;15.80;62.10
68764;DHT22;55754;52.038;5.566;2022-07-06T00:18:18;15.90;62.20
68764;DHT22;55754;52.038;5.566;2022-07-06T00:20:44;15.80;62.30
68764;DHT22;55754;52.038;5.566;2022-07-06T00:23:10;15.80;62.40
68764;DHT22;55754;52.038;5.566;2022-07-06T00:25:35;15.80;62.60
68764;DHT22;55754;52.038;5.566;2022-07-06T00:28:01;15.80;62.50
68764;DHT22;55754;52.038;5.566;2022-07-06T00:30:27;15.80;62.50
68764;DHT22;55754;52.038;5.566;2022-07-06T00:32:53;15.80;62.70
68764;DHT22;55754;52.038;5.566;2022-07-06T00:35:18;15.80;63.00
68764;DHT22;55754;52.038;5.566;2022-07-06T00:37:44;15.70;63.00
68764;DHT22;55754;52.038;5.566;2022-07-06T00:40:10;15.70;63.10
68764;DHT22;55754;52.038;5.566;2022-07-06T00:42:42;15.70;63.10
68764;DHT22;55754;52.038;5.566;2022-07-06T00:45:09;15.80;63.10
68764;DHT22;55754;52.038;5.566;2022-07-06T00:47:35;15.80;63.10
68764;DHT22;55754;52.038;5.566;2022-07-06T00:50:03;15.70;63.10
68764;DHT22;55754;52.038;5.566;2022-07-06T00:52:54;15.70;63.30
68764;DHT22;55754;52.038;5.566;2022-07-06T00:55:22;15.70;63.60
68764;DHT22;55754;52.038;5.566;2022-07-06T00:57:48;15.70;63.60
68764;DHT22;55754;52.038;5.566;2022-07-06T01:00:16;15.70;63.40
68764;DHT22;55754;52.038;5.566;2022-07-06T01:02:43;15.70;63.60
68764;DHT22;55754;52.038;5.566;2022-07-06T01:05:10;15.70;63.60
68764;DHT22;55754;52.038;5.566;2022-07-06T01:07:37;15.60;63.60
68764;DHT22;55754;52.038;5.566;2022-07-06T01:10:05;15.50;63.90
68764;DHT22;55754;52.038;5.566;2022-07-06T01:12:31;15.60;63.90
68764;DHT22;55754;52.038;5.566;2022-07-06T01:14:57;15.50;63.80
68764;DHT22;55754;52.038;5.566;2022-07-06T01:17:23;15.50;63.90
68764;DHT22;55754;52.038;5.566;2022-07-06T01:19:50;15.50;64.00
68764;DHT22;55754;52.038;5.566;2022-07-06T01:22:16;15.50;64.00
68764;DHT22;55754;52.038;5.566;2022-07-06T01:24:41;15.50;64.10
68764;DHT22;55754;52.038;5.566;2022-07-06T01:27:07;15.50;64.00
68764;DHT22;55754;52.038;5.566;2022-07-06T01:29:34;15.50;63.90
68764;DHT22;55754;52.038;5.566;2022-07-06T01:32:00;15.40;64.10
68764;DHT22;55754;52.038;5.566;2022-07-06T01:34:26;15.50;64.00
68764;DHT22;55754;52.038;5.566;2022-07-06T01:36:52;15.40;64.00
68764;DHT22;55754;52.038;5.566;2022-07-06T01:39:19;15.40;64.00
68764;DHT22;55754;52.038;5.566;2022-07-06T01:41:45;15.40;64.00
68764;DHT22;55754;52.038;5.566;2022-07-06T01:44:11;15.40;64.00
68764;DHT22;55754;52.038;5.566;2022-07-06T01:46:36;15.40;64.00
68764;DHT22;55754;52.038;5.566;2022-07-06T01:49:03;15.30;64.20
68764;DHT22;55754;52.038;5.566;2022-07-06T01:51:29;15.40;64.20
68764;DHT22;55754;52.038;5.566;2022-07-06T01:53:55;15.30;64.30
68764;DHT22;55754;52.038;5.566;2022-07-06T01:56:20;15.30;64.40
68764;DHT22;55754;52.038;5.566;2022-07-06T01:58:47;15.30;64.50
68764;DHT22;55754;52.038;5.566;2022-07-06T02:01:17;15.30;64.50
68764;DHT22;55754;52.038;5.566;2022-07-06T02:03:43;15.20;64.60
68764;DHT22;55754;52.038;5.566;2022-07-06T02:06:10;15.20;64.50
68764;DHT22;55754;52.038;5.566;2022-07-06T02:08:38;15.30;64.60
68764;DHT22;55754;52.038;5.566;2022-07-06T02:11:05;15.20;64.60
68764;DHT22;55754;52.038;5.566;2022-07-06T02:13:31;15.20;64.70
68764;DHT22;55754;52.038;5.566;2022-07-06T02:15:57;15.20;64.60
68764;DHT22;55754;52.038;5.566;2022-07-06T02:18:23;15.20;64.80
68764;DHT22;55754;52.038;5.566;2022-07-06T02:20:49;15.10;64.90
68764;DHT22;55754;52.038;5.566;2022-07-06T02:23:14;15.20;65.00
68764;DHT22;55754;52.038;5.566;2022-07-06T02:25:40;15.10;65.00
68764;DHT22;55754;52.038;5.566;2022-07-06T02:28:06;15.10;65.30
68764;DHT22;55754;52.038;5.566;2022-07-06T02:30:31;15.00;65.40
68764;DHT22;55754;52.038;5.566;2022-07-06T02:32:57;15.00;65.30
68764;DHT22;55754;52.038;5.566;2022-07-06T02:35:22;15.00;65.60
68764;DHT22;55754;52.038;5.566;2022-07-06T02:37:48;15.00;66.60
68764;DHT22;55754;52.038;5.566;2022-07-06T02:40:14;15.00;65.60
68764;DHT22;55754;52.038;5.566;2022-07-06T02:42:39;15.00;65.70
68764;DHT22;55754;52.038;5.566;2022-07-06T02:45:05;15.00;65.70
68764;DHT22;55754;52.038;5.566;2022-07-06T02:47:32;15.00;65.70
68764;DHT22;55754;52.038;5.566;2022-07-06T02:49:57;14.90;65.80
68764;DHT22;55754;52.038;5.566;2022-07-06T02:52:23;15.00;65.80
68764;DHT22;55754;52.038;5.566;2022-07-06T02:54:49;15.00;65.70
68764;DHT22;55754;52.038;5.566;2022-07-06T02:57:16;15.00;65.80
68764;DHT22;55754;52.038;5.566;2022-07-06T02:59:41;15.00;65.80
68764;DHT22;55754;52.038;5.566;2022-07-06T03:02:07;15.00;65.60
68764;DHT22;55754;52.038;5.566;2022-07-06T03:04:33;15.00;65.90
68764;DHT22;55754;52.038;5.566;2022-07-06T03:06:59;15.00;66.00
68764;DHT22;55754;52.038;5.566;2022-07-06T03:09:25;14.90;66.10
68764;DHT22;55754;52.038;5.566;2022-07-06T03:11:51;15.00;66.20
68764;DHT22;55754;52.038;5.566;2022-07-06T03:14:17;15.00;66.10
68764;DHT22;55754;52.038;5.566;2022-07-06T03:16:43;15.00;66.20
68764;DHT22;55754;52.038;5.566;2022-07-06T03:19:08;15.10;66.00
68764;DHT22;55754;52.038;5.566;2022-07-06T03:21:34;15.10;65.90
68764;DHT22;55754;52.038;5.566;2022-07-06T03:24:00;15.20;65.80
68764;DHT22;55754;52.038;5.566;2022-07-06T03:26:25;15.20;65.80
68764;DHT22;55754;52.038;5.566;2022-07-06T03:28:51;15.20;65.80
68764;DHT22;55754;52.038;5.566;2022-07-06T03:31:17;15.20;65.80
68764;DHT22;55754;52.038;5.566;2022-07-06T03:33:42;15.20;65.80
68764;DHT22;55754;52.038;5.566;2022-07-06T03:36:08;15.30;65.90
68764;DHT22;55754;52.038;5.566;2022-07-06T03:38:35;15.30;65.90
68764;DHT22;55754;52.038;5.566;2022-07-06T03:41:00;15.30;65.60
68764;DHT22;55754;52.038;5.566;2022-07-06T03:43:26;15.40;65.60
68764;DHT22;55754;52.038;5.566;2022-07-06T03:45:52;15.40;65.60
68764;DHT22;55754;52.038;5.566;2022-07-06T03:48:17;15.40;65.80
68764;DHT22;55754;52.038;5.566;2022-07-06T03:50:43;15.40;65.70
68764;DHT22;55754;52.038;5.566;2022-07-06T03:53:09;15.40;65.80
68764;DHT22;55754;52.038;5.566;2022-07-06T03:55:34;15.40;66.00
68764;DHT22;55754;52.038;5.566;2022-07-06T03:58:00;15.40;66.20
68764;DHT22;55754;52.038;5.566;2022-07-06T04:00:26;15.40;66.00
68764;DHT22;55754;52.038;5.566;2022-07-06T04:02:51;15.50;66.10
68764;DHT22;55754;52.038;5.566;2022-07-06T04:05:17;15.50;66.00
68764;DHT22;55754;52.038;5.566;2022-07-06T04:07:49;15.50;65.90
68764;DHT22;55754;52.038;5.566;2022-07-06T04:10:15;15.60;65.90
68764;DHT22;55754;52.038;5.566;2022-07-06T04:12:42;15.50;66.10
68764;DHT22;55754;52.038;5.566;2022-07-06T04:15:08;15.60;65.90
68764;DHT22;55754;52.038;5.566;2022-07-06T04:17:34;15.60;65.90
68764;DHT22;55754;52.038;5.566;2022-07-06T04:20:22;15.60;66.00
68764;DHT22;55754;52.038;5.566;2022-07-06T04:22:48;15.60;66.00
68764;DHT22;55754;52.038;5.566;2022-07-06T04:25:14;15.60;66.00
68764;DHT22;55754;52.038;5.566;2022-07-06T04:27:40;15.60;66.10
68764;DHT22;55754;52.038;5.566;2022-07-06T04:30:06;15.60;66.00
68764;DHT22;55754;52.038;5.566;2022-07-06T04:32:32;15.60;66.00
68764;DHT22;55754;52.038;5.566;2022-07-06T04:34:58;15.60;66.00
68764;DHT22;55754;52.038;5.566;2022-07-06T04:37:23;15.70;66.20
68764;DHT22;55754;52.038;5.566;2022-07-06T04:39:49;15.70;67.10
68764;DHT22;55754;52.038;5.566;2022-07-06T04:42:14;15.70;66.00
68764;DHT22;55754;52.038;5.566;2022-07-06T04:44:40;15.80;66.00
68764;DHT22;55754;52.038;5.566;2022-07-06T04:47:06;15.80;66.00
68764;DHT22;55754;52.038;5.566;2022-07-06T04:49:31;15.80;66.00
68764;DHT22;55754;52.038;5.566;2022-07-06T04:51:57;15.80;66.00
68764;DHT22;55754;52.038;5.566;2022-07-06T04:54:23;15.90;65.80
68764;DHT22;55754;52.038;5.566;2022-07-06T04:56:49;15.90;65.70
68764;DHT22;55754;52.038;5.566;2022-07-06T04:59:15;15.90;65.60
68764;DHT22;55754;52.038;5.566;2022-07-06T05:01:40;15.90;65.50
68764;DHT22;55754;52.038;5.566;2022-07-06T05:04:06;16.00;65.70
68764;DHT22;55754;52.038;5.566;2022-07-06T05:06:32;16.00;65.40
68764;DHT22;55754;52.038;5.566;2022-07-06T05:08:58;16.00;65.60
68764;DHT22;55754;52.038;5.566;2022-07-06T05:11:27;16.00;65.70
68764;DHT22;55754;52.038;5.566;2022-07-06T05:13:53;16.10;65.80
68764;DHT22;55754;52.038;5.566;2022-07-06T05:16:20;16.10;65.40
68764;DHT22;55754;52.038;5.566;2022-07-06T05:18:45;16.10;65.50
68764;DHT22;55754;52.038;5.566;2022-07-06T05:21:11;16.20;65.40
68764;DHT22;55754;52.038;5.566;2022-07-06T05:23:36;16.20;65.20
68764;DHT22;55754;52.038;5.566;2022-07-06T05:26:02;16.30;65.10
68764;DHT22;55754;52.038;5.566;2022-07-06T05:28:28;16.30;65.10
68764;DHT22;55754;52.038;5.566;2022-07-06T05:30:53;16.30;65.10
68764;DHT22;55754;52.038;5.566;2022-07-06T05:33:19;16.40;65.00
68764;DHT22;55754;52.038;5.566;2022-07-06T05:35:45;16.40;64.80
68764;DHT22;55754;52.038;5.566;2022-07-06T05:38:10;16.50;64.60
68764;DHT22;55754;52.038;5.566;2022-07-06T05:40:36;16.50;64.80
68764;DHT22;55754;52.038;5.566;2022-07-06T05:43:02;16.50;64.90
68764;DHT22;55754;52.038;5.566;2022-07-06T05:45:28;16.50;64.80
68764;DHT22;55754;52.038;5.566;2022-07-06T05:47:54;16.70;64.60
68764;DHT22;55754;52.038;5.566;2022-07-06T05:50:39;16.70;64.70
68764;DHT22;55754;52.038;5.566;2022-07-06T05:53:05;16.80;64.60
68764;DHT22;55754;52.038;5.566;2022-07-06T05:55:32;16.80;64.40
68764;DHT22;55754;52.038;5.566;2022-07-06T05:57:58;16.80;64.60
68764;DHT22;55754;52.038;5.566;2022-07-06T06:00:25;16.90;64.50
68764;DHT22;55754;52.038;5.566;2022-07-06T06:02:52;17.00;64.40
68764;DHT22;55754;52.038;5.566;2022-07-06T06:05:18;17.10;64.20
68764;DHT22;55754;52.038;5.566;2022-07-06T06:07:44;17.20;64.00
68764;DHT22;55754;52.038;5.566;2022-07-06T06:10:13;17.40;63.60
68764;DHT22;55754;52.038;5.566;2022-07-06T06:12:39;17.50;63.40
68764;DHT22;55754;52.038;5.566;2022-07-06T06:15:07;17.70;63.10
68764;DHT22;55754;52.038;5.566;2022-07-06T06:17:33;17.80;62.60
68764;DHT22;55754;52.038;5.566;2022-07-06T06:19:59;18.10;62.30
68764;DHT22;55754;52.038;5.566;2022-07-06T06:22:25;18.20;61.70
68764;DHT22;55754;52.038;5.566;2022-07-06T06:24:51;18.50;61.50
68764;DHT22;55754;52.038;5.566;2022-07-06T06:27:17;18.60;61.20
68764;DHT22;55754;52.038;5.566;2022-07-06T06:29:42;18.70;60.80
68764;DHT22;55754;52.038;5.566;2022-07-06T06:32:10;18.90;60.40
68764;DHT22;55754;52.038;5.566;2022-07-06T06:34:36;19.10;60.00
68764;DHT22;55754;52.038;5.566;2022-07-06T06:37:01;19.10;60.00
68764;DHT22;55754;52.038;5.566;2022-07-06T06:39:27;19.10;59.80
68764;DHT22;55754;52.038;5.566;2022-07-06T06:41:53;19.10;59.30
68764;DHT22;55754;52.038;5.566;2022-07-06T06:44:18;19.10;59.10
68764;DHT22;55754;52.038;5.566;2022-07-06T06:46:44;19.20;58.70
68764;DHT22;55754;52.038;5.566;2022-07-06T06:49:10;19.30;58.90
68764;DHT22;55754;52.038;5.566;2022-07-06T06:51:36;19.40;58.80
68764;DHT22;55754;52.038;5.566;2022-07-06T06:54:04;19.50;58.50
68764;DHT22;55754;52.038;5.566;2022-07-06T06:56:29;19.60;57.70
68764;DHT22;55754;52.038;5.566;2022-07-06T06:58:55;19.70;57.50
68764;DHT22;55754;52.038;5.566;2022-07-06T07:01:21;19.80;57.60
68764;DHT22;55754;52.038;5.566;2022-07-06T07:03:46;19.90;57.40
68764;DHT22;55754;52.038;5.566;2022-07-06T07:06:12;20.10;57.40
68764;DHT22;55754;52.038;5.566;2022-07-06T07:08:38;20.20;57.00
68764;DHT22;55754;52.038;5.566;2022-07-06T07:11:03;20.00;56.70
68764;DHT22;55754;52.038;5.566;2022-07-06T07:13:29;19.80;56.60
68764;DHT22;55754;52.038;5.566;2022-07-06T07:15:55;19.70;56.10
68764;DHT22;55754;52.038;5.566;2022-07-06T07:18:20;19.70;55.80
68764;DHT22;55754;52.038;5.566;2022-07-06T07:20:46;19.80;55.50
68764;DHT22;55754;52.038;5.566;2022-07-06T07:23:12;20.00;55.60
68764;DHT22;55754;52.038;5.566;2022-07-06T07:25:37;20.30;55.00
68764;DHT22;55754;52.038;5.566;2022-07-06T07:28:05;20.40;54.60
68764;DHT22;55754;52.038;5.566;2022-07-06T07:30:30;20.50;54.50
68764;DHT22;55754;52.038;5.566;2022-07-06T07:32:56;20.50;53.80
68764;DHT22;55754;52.038;5.566;2022-07-06T07:35:22;20.30;53.90
68764;DHT22;55754;52.038;5.566;2022-07-06T07:37:48;20.40;54.20
68764;DHT22;55754;52.038;5.566;2022-07-06T07:40:14;20.40;53.60
68764;DHT22;55754;52.038;5.566;2022-07-06T07:42:40;20.40;53.30
68764;DHT22;55754;52.038;5.566;2022-07-06T07:45:07;20.40;52.90
68764;DHT22;55754;52.038;5.566;2022-07-06T07:47:33;20.50;52.60
68764;DHT22;55754;52.038;5.566;2022-07-06T07:49:59;20.70;52.30
68764;DHT22;55754;52.038;5.566;2022-07-06T07:52:25;20.90;52.00
68764;DHT22;55754;52.038;5.566;2022-07-06T07:54:51;21.00;51.80
68764;DHT22;55754;52.038;5.566;2022-07-06T07:57:16;20.80;51.60
68764;DHT22;55754;52.038;5.566;2022-07-06T07:59:42;20.70;51.60
68764;DHT22;55754;52.038;5.566;2022-07-06T08:02:08;20.60;51.40
68764;DHT22;55754;52.038;5.566;2022-07-06T08:04:34;20.60;50.50
68764;DHT22;55754;52.038;5.566;2022-07-06T08:06:59;20.60;50.50
68764;DHT22;55754;52.038;5.566;2022-07-06T08:09:25;20.70;50.30
68764;DHT22;55754;52.038;5.566;2022-07-06T08:11:51;21.00;50.10
68764;DHT22;55754;52.038;5.566;2022-07-06T08:14:17;21.30;49.10
68764;DHT22;55754;52.038;5.566;2022-07-06T08:16:43;21.60;48.70
68764;DHT22;55754;52.038;5.566;2022-07-06T08:19:09;21.80;48.10
68764;DHT22;55754;52.038;5.566;2022-07-06T08:21:35;22.00;48.00
68764;DHT22;55754;52.038;5.566;2022-07-06T08:24:01;22.20;47.10
68764;DHT22;55754;52.038;5.566;2022-07-06T08:26:27;22.30;46.60
68764;DHT22;55754;52.038;5.566;2022-07-06T08:28:53;22.60;44.60
68764;DHT22;55754;52.038;5.566;2022-07-06T08:31:19;22.80;44.60
68764;DHT22;55754;52.038;5.566;2022-07-06T08:33:44;23.10;44.10
68764;DHT22;55754;52.038;5.566;2022-07-06T08:36:10;23.50;42.90
68764;DHT22;55754;52.038;5.566;2022-07-06T08:38:36;23.90;42.20
68764;DHT22;55754;52.038;5.566;2022-07-06T08:41:02;24.00;41.70
68764;DHT22;55754;52.038;5.566;2022-07-06T08:43:32;24.20;41.00
68764;DHT22;55754;52.038;5.566;2022-07-06T08:45:58;24.70;39.90
68764;DHT22;55754;52.038;5.566;2022-07-06T08:48:25;24.70;39.80
68764;DHT22;55754;52.038;5.566;2022-07-06T08:50:53;24.60;40.30
68764;DHT22;55754;52.038;5.566;2022-07-06T08:53:20;24.90;40.00
68764;DHT22;55754;52.038;5.566;2022-07-06T08:55:48;25.10;39.10
68764;DHT22;55754;52.038;5.566;2022-07-06T08:58:14;25.20;38.30
68764;DHT22;55754;52.038;5.566;2022-07-06T09:00:41;25.00;38.30
68764;DHT22;55754;52.038;5.566;2022-07-06T09:03:07;24.80;38.60
68764;DHT22;55754;52.038;5.566;2022-07-06T09:05:37;24.60;39.40
68764;DHT22;55754;52.038;5.566;2022-07-06T09:08:03;24.30;40.30
68764;DHT22;55754;52.038;5.566;2022-07-06T09:10:28;24.00;40.90
68764;DHT22;55754;52.038;5.566;2022-07-06T09:13:02;23.70;41.90
68764;DHT22;55754;52.038;5.566;2022-07-06T09:15:29;23.60;41.90
68764;DHT22;55754;52.038;5.566;2022-07-06T09:17:56;23.40;42.50
68764;DHT22;55754;52.038;5.566;2022-07-06T09:20:22;23.20;42.60
68764;DHT22;55754;52.038;5.566;2022-07-06T09:22:47;23.20;42.70
68764;DHT22;55754;52.038;5.566;2022-07-06T09:25:15;23.30;42.20
68764;DHT22;55754;52.038;5.566;2022-07-06T09:27:43;23.30;42.60
68764;DHT22;55754;52.038;5.566;2022-07-06T09:30:13;23.30;42.30
68764;DHT22;55754;52.038;5.566;2022-07-06T09:32:51;23.10;41.50
68764;DHT22;55754;52.038;5.566;2022-07-06T09:38:11;23.00;40.40
68764;DHT22;55754;52.038;5.566;2022-07-06T09:40:39;22.80;39.60
68764;DHT22;55754;52.038;5.566;2022-07-06T09:43:17;22.50;41.40
68764;DHT22;55754;52.038;5.566;2022-07-06T09:45:49;22.70;41.70
68764;DHT22;55754;52.038;5.566;2022-07-06T09:48:26;22.80;40.90
68764;DHT22;55754;52.038;5.566;2022-07-06T09:51:00;22.70;41.20
68764;DHT22;55754;52.038;5.566;2022-07-06T09:53:31;22.70;40.80
68764;DHT22;55754;52.038;5.566;2022-07-06T09:55:57;22.70;41.30
68764;DHT22;55754;52.038;5.566;2022-07-06T09:58:27;22.70;41.70
68764;DHT22;55754;52.038;5.566;2022-07-06T10:00:53;22.70;42.30
68764;DHT22;55754;52.038;5.566;2022-07-06T10:03:19;22.70;42.60
68764;DHT22;55754;52.038;5.566;2022-07-06T10:05:46;22.70;42.40
68764;DHT22;55754;52.038;5.566;2022-07-06T10:08:16;22.60;43.10
68764;DHT22;55754;52.038;5.566;2022-07-06T10:10:44;22.40;43.40
68764;DHT22;55754;52.038;5.566;2022-07-06T10:13:10;22.40;43.50
68764;DHT22;55754;52.038;5.566;2022-07-06T10:15:37;22.40;43.60
68764;DHT22;55754;52.038;5.566;2022-07-06T10:18:05;22.30;43.30
68764;DHT22;55754;52.038;5.566;2022-07-06T10:20:33;22.40;43.20
68764;DHT22;55754;52.038;5.566;2022-07-06T10:23:02;22.30;42.90
68764;DHT22;55754;52.038;5.566;2022-07-06T10:25:29;22.30;43.30
68764;DHT22;55754;52.038;5.566;2022-07-06T10:27:55;22.30;43.20
68764;DHT22;55754;52.038;5.566;2022-07-06T10:30:22;22.30;42.80
68764;DHT22;55754;52.038;5.566;2022-07-06T10:32:49;22.20;42.90
68764;DHT22;55754;52.038;5.566;2022-07-06T10:35:19;22.10;43.30
68764;DHT22;55754;52.038;5.566;2022-07-06T10:37:46;22.10;43.60
68764;DHT22;55754;52.038;5.566;2022-07-06T10:40:35;22.10;43.20
68764;DHT22;55754;52.038;5.566;2022-07-06T10:43:19;22.20;42.70
68764;DHT22;55754;52.038;5.566;2022-07-06T10:50:37;22.30;42.40
68764;DHT22;55754;52.038;5.566;2022-07-06T10:53:03;22.40;42.00
68764;DHT22;55754;52.038;5.566;2022-07-06T10:55:37;22.40;42.00
68764;DHT22;55754;52.038;5.566;2022-07-06T10:58:04;22.40;42.10
68764;DHT22;55754;52.038;5.566;2022-07-06T11:00:52;22.40;41.70
68764;DHT22;55754;52.038;5.566;2022-07-06T11:03:35;22.30;41.90
68764;DHT22;55754;52.038;5.566;2022-07-06T11:09:10;22.20;42.80
68764;DHT22;55754;52.038;5.566;2022-07-06T11:14:05;22.20;42.80
68764;DHT22;55754;52.038;5.566;2022-07-06T11:16:33;22.30;42.70
68764;DHT22;55754;52.038;5.566;2022-07-06T11:19:08;22.40;42.30
68764;DHT22;55754;52.038;5.566;2022-07-06T11:21:45;22.60;41.70
68764;DHT22;55754;52.038;5.566;2022-07-06T11:24:17;22.60;41.70
68764;DHT22;55754;52.038;5.566;2022-07-06T11:26:45;22.60;41.20
68764;DHT22;55754;52.038;5.566;2022-07-06T11:29:12;22.60;42.20
68764;DHT22;55754;52.038;5.566;2022-07-06T11:31:40;22.70;41.10
68764;DHT22;55754;52.038;5.566;2022-07-06T11:34:07;22.60;41.40
68764;DHT22;55754;52.038;5.566;2022-07-06T11:36:34;22.70;41.80
68764;DHT22;55754;52.038;5.566;2022-07-06T11:39:00;22.80;42.00
68764;DHT22;55754;52.038;5.566;2022-07-06T11:41:26;22.70;41.60
68764;DHT22;55754;52.038;5.566;2022-07-06T11:43:52;22.70;41.30
68764;DHT22;55754;52.038;5.566;2022-07-06T11:46:28;22.80;41.40
68764;DHT22;55754;52.038;5.566;2022-07-06T11:49:02;22.80;40.80
68764;DHT22;55754;52.038;5.566;2022-07-06T11:51:31;22.90;41.30
68764;DHT22;55754;52.038;5.566;2022-07-06T11:53:58;22.90;41.00
68764;DHT22;55754;52.038;5.566;2022-07-06T11:56:30;23.00;40.40
68764;DHT22;55754;52.038;5.566;2022-07-06T11:58:58;23.10;40.90
68764;DHT22;55754;52.038;5.566;2022-07-06T12:01:26;23.00;40.50
68764;DHT22;55754;52.038;5.566;2022-07-06T12:03:57;23.00;40.80
68764;DHT22;55754;52.038;5.566;2022-07-06T12:06:24;22.90;41.10
68764;DHT22;55754;52.038;5.566;2022-07-06T12:08:52;22.80;41.60
68764;DHT22;55754;52.038;5.566;2022-07-06T12:11:26;22.70;41.70
68764;DHT22;55754;52.038;5.566;2022-07-06T12:13:57;22.80;40.80
68764;DHT22;55754;52.038;5.566;2022-07-06T12:16:34;23.00;40.60
68764;DHT22;55754;52.038;5.566;2022-07-06T12:19:02;23.20;41.20
68764;DHT22;55754;52.038;5.566;2022-07-06T12:21:28;23.30;40.60
68764;DHT22;55754;52.038;5.566;2022-07-06T12:23:54;23.20;40.60
68764;DHT22;55754;52.038;5.566;2022-07-06T12:26:22;23.30;40.90
68764;DHT22;55754;52.038;5.566;2022-07-06T12:31:37;23.20;41.00
68764;DHT22;55754;52.038;5.566;2022-07-06T12:34:04;23.20;40.60
68764;DHT22;55754;52.038;5.566;2022-07-06T12:36:30;23.20;41.10
68764;DHT22;55754;52.038;5.566;2022-07-06T12:38:56;23.30;41.10
68764;DHT22;55754;52.038;5.566;2022-07-06T12:41:31;23.30;40.40
68764;DHT22;55754;52.038;5.566;2022-07-06T12:44:08;23.40;39.60
68764;DHT22;55754;52.038;5.566;2022-07-06T12:46:39;23.30;39.80
68764;DHT22;55754;52.038;5.566;2022-07-06T12:49:21;23.30;40.60
68764;DHT22;55754;52.038;5.566;2022-07-06T12:54:43;23.00;39.00
68764;DHT22;55754;52.038;5.566;2022-07-06T12:57:17;23.00;39.90
68764;DHT22;55754;52.038;5.566;2022-07-06T12:59:46;23.20;39.90
68764;DHT22;55754;52.038;5.566;2022-07-06T13:07:26;23.40;39.20
68764;DHT22;55754;52.038;5.566;2022-07-06T13:09:52;23.40;39.60
68764;DHT22;55754;52.038;5.566;2022-07-06T13:12:18;23.50;39.30
68764;DHT22;55754;52.038;5.566;2022-07-06T13:14:44;23.60;39.70
68764;DHT22;55754;52.038;5.566;2022-07-06T13:17:09;23.70;38.90
68764;DHT22;55754;52.038;5.566;2022-07-06T13:19:35;23.60;39.10
68764;DHT22;55754;52.038;5.566;2022-07-06T13:22:01;23.50;39.60
68764;DHT22;55754;52.038;5.566;2022-07-06T13:24:26;23.30;39.10
68764;DHT22;55754;52.038;5.566;2022-07-06T13:26:54;23.20;38.90
68764;DHT22;55754;52.038;5.566;2022-07-06T13:29:20;23.30;39.20
68764;DHT22;55754;52.038;5.566;2022-07-06T13:31:46;23.40;38.50
68764;DHT22;55754;52.038;5.566;2022-07-06T13:34:12;23.50;38.70
68764;DHT22;55754;52.038;5.566;2022-07-06T13:36:39;23.50;38.80
68764;DHT22;55754;52.038;5.566;2022-07-06T13:39:05;23.40;38.90
68764;DHT22;55754;52.038;5.566;2022-07-06T13:41:32;23.40;38.90
68764;DHT22;55754;52.038;5.566;2022-07-06T13:43:59;23.30;38.90
68764;DHT22;55754;52.038;5.566;2022-07-06T13:46:29;23.40;39.30
68764;DHT22;55754;52.038;5.566;2022-07-06T13:48:56;23.40;39.40
68764;DHT22;55754;52.038;5.566;2022-07-06T13:51:23;23.40;38.80
68764;DHT22;55754;52.038;5.566;2022-07-06T13:53:50;23.50;38.70
68764;DHT22;55754;52.038;5.566;2022-07-06T13:56:16;23.50;39.00
68764;DHT22;55754;52.038;5.566;2022-07-06T13:58:42;23.50;39.20
68764;DHT22;55754;52.038;5.566;2022-07-06T14:01:08;23.70;39.40
68764;DHT22;55754;52.038;5.566;2022-07-06T14:03:35;23.70;40.00
68764;DHT22;55754;52.038;5.566;2022-07-06T14:06:03;23.70;39.50
68764;DHT22;55754;52.038;5.566;2022-07-06T14:08:29;23.70;39.40
68764;DHT22;55754;52.038;5.566;2022-07-06T14:10:56;23.70;39.40
68764;DHT22;55754;52.038;5.566;2022-07-06T14:13:22;23.70;39.00
68764;DHT22;55754;52.038;5.566;2022-07-06T14:15:48;23.70;39.30
68764;DHT22;55754;52.038;5.566;2022-07-06T14:18:15;23.60;39.30
68764;DHT22;55754;52.038;5.566;2022-07-06T14:20:43;23.60;39.60
68764;DHT22;55754;52.038;5.566;2022-07-06T14:23:09;23.40;39.00
68764;DHT22;55754;52.038;5.566;2022-07-06T14:25:36;23.40;39.00
68764;DHT22;55754;52.038;5.566;2022-07-06T14:28:01;23.30;39.00
68764;DHT22;55754;52.038;5.566;2022-07-06T14:30:27;23.30;38.70
68764;DHT22;55754;52.038;5.566;2022-07-06T14:32:53;23.50;38.80
68764;DHT22;55754;52.038;5.566;2022-07-06T14:35:19;23.50;39.30
68764;DHT22;55754;52.038;5.566;2022-07-06T14:37:44;23.50;39.30
68764;DHT22;55754;52.038;5.566;2022-07-06T14:40:10;23.40;38.90
68764;DHT22;55754;52.038;5.566;2022-07-06T14:42:36;23.20;39.10
68764;DHT22;55754;52.038;5.566;2022-07-06T14:45:01;23.20;39.50
68764;DHT22;55754;52.038;5.566;2022-07-06T14:47:27;23.30;40.10
68764;DHT22;55754;52.038;5.566;2022-07-06T14:49:52;23.20;40.00
68764;DHT22;55754;52.038;5.566;2022-07-06T14:52:18;23.10;40.10
68764;DHT22;55754;52.038;5.566;2022-07-06T14:54:44;23.10;40.40
68764;DHT22;55754;52.038;5.566;2022-07-06T14:57:10;23.00;40.90
68764;DHT22;55754;52.038;5.566;2022-07-06T14:59:36;23.00;40.40
68764;DHT22;55754;52.038;5.566;2022-07-06T15:02:02;23.10;40.70
68764;DHT22;55754;52.038;5.566;2022-07-06T15:04:28;23.10;41.40
68764;DHT22;55754;52.038;5.566;2022-07-06T15:06:54;23.10;41.90
68764;DHT22;55754;52.038;5.566;2022-07-06T15:09:20;23.10;42.00
68764;DHT22;55754;52.038;5.566;2022-07-06T15:11:45;23.00;41.70
68764;DHT22;55754;52.038;5.566;2022-07-06T15:14:12;23.00;41.50
68764;DHT22;55754;52.038;5.566;2022-07-06T15:16:38;23.00;41.50
68764;DHT22;55754;52.038;5.566;2022-07-06T15:19:04;23.00;41.70
68764;DHT22;55754;52.038;5.566;2022-07-06T15:21:30;23.00;41.70
68764;DHT22;55754;52.038;5.566;2022-07-06T15:23:56;23.00;41.60
68764;DHT22;55754;52.038;5.566;2022-07-06T15:26:22;23.00;41.60
68764;DHT22;55754;52.038;5.566;2022-07-06T15:28:50;23.00;41.70
68764;DHT22;55754;52.038;5.566;2022-07-06T15:31:15;23.00;42.00
68764;DHT22;55754;52.038;5.566;2022-07-06T15:33:41;22.90;42.20
68764;DHT22;55754;52.038;5.566;2022-07-06T15:36:07;22.80;42.10
68764;DHT22;55754;52.038;5.566;2022-07-06T15:38:33;22.80;42.40
68764;DHT22;55754;52.038;5.566;2022-07-06T15:41:00;22.70;42.00
68764;DHT22;55754;52.038;5.566;2022-07-06T15:43:29;22.70;42.20
68764;DHT22;55754;52.038;5.566;2022-07-06T15:45:57;22.70;42.30
68764;DHT22;55754;52.038;5.566;2022-07-06T15:48:24;22.60;42.40
68764;DHT22;55754;52.038;5.566;2022-07-06T15:50:50;22.60;42.50
68764;DHT22;55754;52.038;5.566;2022-07-06T15:53:16;22.60;43.00